Upstream stations:
Downstream station:
SHEF ID: MIAO2 Neosho River at Miami, OK
STATION TYPE:
PRECIP STAGE STAGE(2) RIV-FLOW FLOW-INDX WTR-TEMP TURBIDITY BAT-LOAD
in ft ft cfs ft/s F NTU volt
Ccp-Rev Ccp-Rev Ccp-Rev Ccp-Rev Ccp-Rev Ccp-Rev Ccp-Rev Ccp-Rev
(US/Central)
04/28 00:00 0.00 742.35 742.34 ---- ---- ---- ---- 12.41
04/28 01:00 ---- ---- ---- ---- ---- ---- ---- ----
04/28 02:00 ---- 742.35 742.34 ---- ---- ---- ---- 12.41
04/28 03:00 0.00 742.32 742.32 ---- ---- ---- ---- 12.33
04/28 04:00 0.06 742.24 742.18 ---- ---- ---- ---- 12.33
04/28 05:00 0.02 742.33 742.27 ---- ---- ---- ---- 12.33
04/28 06:00 0.01 742.63 742.59 ---- ---- ---- ---- 12.33
04/28 07:00 0.00 742.50 742.44 ---- ---- ---- ---- 12.33
04/28 08:00 0.01 742.15 742.13 ---- ---- ---- ---- 12.33
04/28 09:00 0.08 742.17 742.14 ---- ---- ---- ---- 12.33
04/28 10:00 0.00 742.41 742.36 ---- ---- ---- ---- 12.73
04/28 11:00 0.00 742.29 742.24 ---- ---- ---- ---- 12.97
04/28 12:00 0.01 742.16 742.14 ---- ---- ---- ---- 13.05
04/28 13:00 0.02 742.31 742.30 ---- ---- ---- ---- 12.89
04/28 14:00 0.01 742.32 742.27 ---- ---- ---- ---- 12.89
04/28 15:00 0.00 742.16 742.11 ---- ---- ---- ---- 13.21
04/28 16:00 0.00 742.12 742.07 ---- ---- ---- ---- 13.05
04/28 17:00 0.00 742.19 742.17 ---- ---- ---- ---- 12.65
04/28 18:00 0.01 742.27 742.23 ---- ---- ---- ---- 12.97
04/28 19:00 0.00 742.28 742.27 ---- ---- ---- ---- 12.57
04/28 20:00 0.00 742.35 742.35 ---- ---- ---- ---- 12.49
04/28 21:00 0.00 742.38 742.37 ---- ---- ---- ---- 12.41
04/28 22:00 0.00 742.31 742.29 ---- ---- ---- ---- 12.41
04/28 23:00 ---- ---- ---- ---- ---- ---- ---- ----